Bonaventure, Florida
Current Conditions -  °F | °C
As of 1:53 AM on Thursday 23 Oct 2014 (Local Time) from KHWO Reporting Station
Broken Clouds Broken Clouds  
Wind Chill: 75°   Ceiling: 4800
Heat Index: 75°   Visibility: 10mi
Dew Point: 72°   Wind: 3mph
Humidity: 90%   Direction: 140°SE
Pressure: 29.93"   Gusts: NA
Location:  26.097°N, 80.3968°W
Report Text: KHWO 230553Z AUTO 14003KT 10SM BKN048 24/22 A2993 RMK AO2 SLP134 60003 T02390222 10250 20239 56009
Loading
Personal Weather Stations






























Interactive Weather Map
Tropical Storm Tracking
New forecast layout! Learn more

10-Day Weather Forecast

Advertisements
Track Severe Weather on mobile